sensor_id;sensor_type;location;lat;lon;timestamp;temperature;humidity
56298;DHT22;42208;6.376;-10.782;2022-12-18T00:01:32;27.60;99.90
56298;DHT22;42208;6.376;-10.782;2022-12-18T00:04:03;27.60;99.90
56298;DHT22;42208;6.376;-10.782;2022-12-18T00:06:33;27.60;99.90
56298;DHT22;42208;6.376;-10.782;2022-12-18T00:09:03;27.60;99.90
56298;DHT22;42208;6.376;-10.782;2022-12-18T00:11:32;27.60;99.90
56298;DHT22;42208;6.376;-10.782;2022-12-18T00:14:00;27.60;99.90
56298;DHT22;42208;6.376;-10.782;2022-12-18T00:16:29;27.60;99.90
56298;DHT22;42208;6.376;-10.782;2022-12-18T00:19:00;27.60;99.90
56298;DHT22;42208;6.376;-10.782;2022-12-18T00:21:29;27.60;99.90
56298;DHT22;42208;6.376;-10.782;2022-12-18T00:23:58;27.60;99.90
56298;DHT22;42208;6.376;-10.782;2022-12-18T00:26:29;27.50;99.90
56298;DHT22;42208;6.376;-10.782;2022-12-18T00:29:09;27.60;99.90
56298;DHT22;42208;6.376;-10.782;2022-12-18T00:31:38;27.50;99.90
56298;DHT22;42208;6.376;-10.782;2022-12-18T00:34:08;27.50;99.90
56298;DHT22;42208;6.376;-10.782;2022-12-18T00:36:40;27.50;99.90
56298;DHT22;42208;6.376;-10.782;2022-12-18T00:39:10;27.60;99.90
56298;DHT22;42208;6.376;-10.782;2022-12-18T00:41:38;27.60;99.90
56298;DHT22;42208;6.376;-10.782;2022-12-18T00:44:09;27.50;99.90
56298;DHT22;42208;6.376;-10.782;2022-12-18T00:46:37;27.50;99.90
56298;DHT22;42208;6.376;-10.782;2022-12-18T00:49:07;27.50;99.90
56298;DHT22;42208;6.376;-10.782;2022-12-18T00:51:38;27.50;99.90
56298;DHT22;42208;6.376;-10.782;2022-12-18T00:54:06;27.60;99.90
56298;DHT22;42208;6.376;-10.782;2022-12-18T00:56:38;27.60;99.90
56298;DHT22;42208;6.376;-10.782;2022-12-18T00:59:16;27.60;99.90
56298;DHT22;42208;6.376;-10.782;2022-12-18T01:01:45;27.50;99.90
56298;DHT22;42208;6.376;-10.782;2022-12-18T01:04:14;27.50;99.90
56298;DHT22;42208;6.376;-10.782;2022-12-18T01:06:45;27.50;99.90
56298;DHT22;42208;6.376;-10.782;2022-12-18T01:09:15;27.50;99.90
56298;DHT22;42208;6.376;-10.782;2022-12-18T01:11:43;27.50;99.90
56298;DHT22;42208;6.376;-10.782;2022-12-18T01:14:12;27.50;99.90
56298;DHT22;42208;6.376;-10.782;2022-12-18T01:16:40;27.50;99.90
56298;DHT22;42208;6.376;-10.782;2022-12-18T01:19:09;27.50;99.90
56298;DHT22;42208;6.376;-10.782;2022-12-18T01:21:38;27.50;99.90
56298;DHT22;42208;6.376;-10.782;2022-12-18T01:24:06;27.40;99.90
56298;DHT22;42208;6.376;-10.782;2022-12-18T01:26:34;27.50;99.90
56298;DHT22;42208;6.376;-10.782;2022-12-18T01:29:03;27.40;99.90
56298;DHT22;42208;6.376;-10.782;2022-12-18T01:31:33;27.40;99.90
56298;DHT22;42208;6.376;-10.782;2022-12-18T01:34:03;27.40;99.90
56298;DHT22;42208;6.376;-10.782;2022-12-18T01:36:37;27.40;99.90
56298;DHT22;42208;6.376;-10.782;2022-12-18T01:39:09;27.40;99.90
56298;DHT22;42208;6.376;-10.782;2022-12-18T01:41:42;27.30;99.90
56298;DHT22;42208;6.376;-10.782;2022-12-18T01:50:25;27.10;99.90
56298;DHT22;42208;6.376;-10.782;2022-12-18T01:53:11;27.10;99.90
56298;DHT22;42208;6.376;-10.782;2022-12-18T01:55:50;27.00;99.90
56298;DHT22;42208;6.376;-10.782;2022-12-18T01:58:24;26.90;99.90
56298;DHT22;42208;6.376;-10.782;2022-12-18T02:00:56;26.80;99.90
56298;DHT22;42208;6.376;-10.782;2022-12-18T02:03:24;26.80;99.90
56298;DHT22;42208;6.376;-10.782;2022-12-18T02:06:01;26.80;99.90
56298;DHT22;42208;6.376;-10.782;2022-12-18T02:08:51;26.80;99.90
56298;DHT22;42208;6.376;-10.782;2022-12-18T02:11:39;26.70;99.90
56298;DHT22;42208;6.376;-10.782;2022-12-18T02:19:55;26.60;99.90
56298;DHT22;42208;6.376;-10.782;2022-12-18T02:22:34;26.60;99.90
56298;DHT22;42208;6.376;-10.782;2022-12-18T02:27:40;26.60;99.90
56298;DHT22;42208;6.376;-10.782;2022-12-18T02:30:10;26.60;99.90
56298;DHT22;42208;6.376;-10.782;2022-12-18T02:32:45;26.60;99.90
56298;DHT22;42208;6.376;-10.782;2022-12-18T02:35:23;26.60;99.90
56298;DHT22;42208;6.376;-10.782;2022-12-18T02:37:55;26.60;99.90
56298;DHT22;42208;6.376;-10.782;2022-12-18T02:40:28;26.60;99.90
56298;DHT22;42208;6.376;-10.782;2022-12-18T02:43:13;26.60;99.90
56298;DHT22;42208;6.376;-10.782;2022-12-18T02:45:54;26.60;99.90
56298;DHT22;42208;6.376;-10.782;2022-12-18T02:48:34;26.60;99.90
56298;DHT22;42208;6.376;-10.782;2022-12-18T02:54:08;26.60;99.90
56298;DHT22;42208;6.376;-10.782;2022-12-18T02:56:47;26.60;99.90
56298;DHT22;42208;6.376;-10.782;2022-12-18T02:59:30;26.60;99.90
56298;DHT22;42208;6.376;-10.782;2022-12-18T03:07:59;26.60;99.90
56298;DHT22;42208;6.376;-10.782;2022-12-18T03:10:35;26.60;99.90
56298;DHT22;42208;6.376;-10.782;2022-12-18T03:13:13;26.60;99.90
56298;DHT22;42208;6.376;-10.782;2022-12-18T03:15:47;26.50;99.90
56298;DHT22;42208;6.376;-10.782;2022-12-18T03:18:21;26.50;99.90
56298;DHT22;42208;6.376;-10.782;2022-12-18T03:20:54;26.50;99.90
56298;DHT22;42208;6.376;-10.782;2022-12-18T03:23:28;26.40;99.90
56298;DHT22;42208;6.376;-10.782;2022-12-18T03:26:02;26.30;99.90
56298;DHT22;42208;6.376;-10.782;2022-12-18T03:28:42;26.30;99.90
56298;DHT22;42208;6.376;-10.782;2022-12-18T03:31:14;26.30;99.90
56298;DHT22;42208;6.376;-10.782;2022-12-18T03:33:55;26.30;99.90
56298;DHT22;42208;6.376;-10.782;2022-12-18T03:36:33;26.40;99.90
56298;DHT22;42208;6.376;-10.782;2022-12-18T03:39:02;26.40;99.90
56298;DHT22;42208;6.376;-10.782;2022-12-18T03:41:44;26.40;99.90
56298;DHT22;42208;6.376;-10.782;2022-12-18T03:47:14;26.40;99.90
56298;DHT22;42208;6.376;-10.782;2022-12-18T03:49:50;26.40;99.90
56298;DHT22;42208;6.376;-10.782;2022-12-18T03:52:28;26.30;99.90
56298;DHT22;42208;6.376;-10.782;2022-12-18T03:55:00;26.30;99.90
56298;DHT22;42208;6.376;-10.782;2022-12-18T03:57:31;26.20;99.90
56298;DHT22;42208;6.376;-10.782;2022-12-18T04:00:05;26.30;99.90
56298;DHT22;42208;6.376;-10.782;2022-12-18T04:03:01;26.20;99.90
56298;DHT22;42208;6.376;-10.782;2022-12-18T04:05:40;26.20;99.90
56298;DHT22;42208;6.376;-10.782;2022-12-18T04:08:11;26.20;99.90
56298;DHT22;42208;6.376;-10.782;2022-12-18T04:10:43;26.20;99.90
56298;DHT22;42208;6.376;-10.782;2022-12-18T04:13:11;26.20;99.90
56298;DHT22;42208;6.376;-10.782;2022-12-18T04:15:40;26.20;99.90
56298;DHT22;42208;6.376;-10.782;2022-12-18T04:18:13;26.20;99.90
56298;DHT22;42208;6.376;-10.782;2022-12-18T04:20:43;26.20;99.90
56298;DHT22;42208;6.376;-10.782;2022-12-18T04:23:12;26.10;99.90
56298;DHT22;42208;6.376;-10.782;2022-12-18T04:25:40;26.20;99.90
56298;DHT22;42208;6.376;-10.782;2022-12-18T04:28:12;26.20;99.90
56298;DHT22;42208;6.376;-10.782;2022-12-18T04:30:41;26.20;99.90
56298;DHT22;42208;6.376;-10.782;2022-12-18T04:33:11;26.10;99.90
56298;DHT22;42208;6.376;-10.782;2022-12-18T04:35:43;26.20;99.90
56298;DHT22;42208;6.376;-10.782;2022-12-18T04:38:12;26.10;99.90
56298;DHT22;42208;6.376;-10.782;2022-12-18T04:40:41;26.10;99.90
56298;DHT22;42208;6.376;-10.782;2022-12-18T04:43:19;26.10;99.90
56298;DHT22;42208;6.376;-10.782;2022-12-18T04:45:47;26.10;99.90
56298;DHT22;42208;6.376;-10.782;2022-12-18T04:48:19;26.00;99.90
56298;DHT22;42208;6.376;-10.782;2022-12-18T04:50:48;26.00;99.90
56298;DHT22;42208;6.376;-10.782;2022-12-18T04:53:16;26.00;99.90
56298;DHT22;42208;6.376;-10.782;2022-12-18T04:55:44;26.00;99.90
56298;DHT22;42208;6.376;-10.782;2022-12-18T04:58:12;26.00;99.90
56298;DHT22;42208;6.376;-10.782;2022-12-18T05:00:41;26.00;99.90
56298;DHT22;42208;6.376;-10.782;2022-12-18T05:03:09;26.00;99.90
56298;DHT22;42208;6.376;-10.782;2022-12-18T05:05:37;26.00;99.90
56298;DHT22;42208;6.376;-10.782;2022-12-18T05:08:05;26.00;99.90
56298;DHT22;42208;6.376;-10.782;2022-12-18T05:10:33;25.90;99.90
56298;DHT22;42208;6.376;-10.782;2022-12-18T05:13:04;25.90;99.90
56298;DHT22;42208;6.376;-10.782;2022-12-18T05:15:33;25.90;99.90
56298;DHT22;42208;6.376;-10.782;2022-12-18T05:18:02;25.90;99.90
56298;DHT22;42208;6.376;-10.782;2022-12-18T05:20:31;25.90;99.90
56298;DHT22;42208;6.376;-10.782;2022-12-18T05:22:59;25.90;99.90
56298;DHT22;42208;6.376;-10.782;2022-12-18T05:25:28;25.90;99.90
56298;DHT22;42208;6.376;-10.782;2022-12-18T05:27:56;25.90;99.90
56298;DHT22;42208;6.376;-10.782;2022-12-18T05:30:25;25.90;99.90
56298;DHT22;42208;6.376;-10.782;2022-12-18T05:32:53;25.90;99.90
56298;DHT22;42208;6.376;-10.782;2022-12-18T05:35:22;25.90;99.90
56298;DHT22;42208;6.376;-10.782;2022-12-18T05:37:50;25.90;99.90
56298;DHT22;42208;6.376;-10.782;2022-12-18T05:40:18;25.90;99.90
56298;DHT22;42208;6.376;-10.782;2022-12-18T05:42:47;25.90;99.90
56298;DHT22;42208;6.376;-10.782;2022-12-18T05:45:15;25.80;99.90
56298;DHT22;42208;6.376;-10.782;2022-12-18T05:47:43;25.80;99.90
56298;DHT22;42208;6.376;-10.782;2022-12-18T05:50:12;25.80;99.90
56298;DHT22;42208;6.376;-10.782;2022-12-18T05:52:40;25.80;99.90
56298;DHT22;42208;6.376;-10.782;2022-12-18T05:55:08;25.80;99.90
56298;DHT22;42208;6.376;-10.782;2022-12-18T05:57:36;25.80;99.90
56298;DHT22;42208;6.376;-10.782;2022-12-18T06:00:05;25.80;99.90
56298;DHT22;42208;6.376;-10.782;2022-12-18T06:02:38;25.80;99.90
56298;DHT22;42208;6.376;-10.782;2022-12-18T06:05:06;25.90;99.90
56298;DHT22;42208;6.376;-10.782;2022-12-18T06:07:35;25.80;99.90
56298;DHT22;42208;6.376;-10.782;2022-12-18T06:10:04;25.80;99.90
56298;DHT22;42208;6.376;-10.782;2022-12-18T06:12:32;25.80;99.90
56298;DHT22;42208;6.376;-10.782;2022-12-18T06:15:00;25.80;99.90
56298;DHT22;42208;6.376;-10.782;2022-12-18T06:17:32;25.80;99.90
56298;DHT22;42208;6.376;-10.782;2022-12-18T06:20:01;25.70;99.90
56298;DHT22;42208;6.376;-10.782;2022-12-18T06:22:31;25.70;99.90
56298;DHT22;42208;6.376;-10.782;2022-12-18T06:25:00;25.80;99.90
56298;DHT22;42208;6.376;-10.782;2022-12-18T06:27:28;25.80;99.90
56298;DHT22;42208;6.376;-10.782;2022-12-18T06:29:56;25.70;99.90
56298;DHT22;42208;6.376;-10.782;2022-12-18T06:32:25;25.70;99.90
56298;DHT22;42208;6.376;-10.782;2022-12-18T06:34:53;25.70;99.90
56298;DHT22;42208;6.376;-10.782;2022-12-18T06:37:22;25.60;99.90
56298;DHT22;42208;6.376;-10.782;2022-12-18T06:39:50;25.60;99.90
56298;DHT22;42208;6.376;-10.782;2022-12-18T06:42:18;25.60;99.90
56298;DHT22;42208;6.376;-10.782;2022-12-18T06:44:49;25.50;99.90
56298;DHT22;42208;6.376;-10.782;2022-12-18T06:47:18;25.50;99.90
56298;DHT22;42208;6.376;-10.782;2022-12-18T06:49:47;25.50;99.90
56298;DHT22;42208;6.376;-10.782;2022-12-18T06:52:16;25.50;99.90
56298;DHT22;42208;6.376;-10.782;2022-12-18T06:54:45;25.50;99.90
56298;DHT22;42208;6.376;-10.782;2022-12-18T06:57:13;25.50;99.90
56298;DHT22;42208;6.376;-10.782;2022-12-18T06:59:41;25.50;99.90
56298;DHT22;42208;6.376;-10.782;2022-12-18T07:02:13;25.50;99.90
56298;DHT22;42208;6.376;-10.782;2022-12-18T07:04:42;25.50;99.90
56298;DHT22;42208;6.376;-10.782;2022-12-18T07:07:10;25.50;99.90
56298;DHT22;42208;6.376;-10.782;2022-12-18T07:09:38;25.40;99.90
56298;DHT22;42208;6.376;-10.782;2022-12-18T07:12:07;25.50;99.90
56298;DHT22;42208;6.376;-10.782;2022-12-18T07:14:35;25.50;99.90
56298;DHT22;42208;6.376;-10.782;2022-12-18T07:17:04;25.50;99.90
56298;DHT22;42208;6.376;-10.782;2022-12-18T07:19:33;25.60;99.90
56298;DHT22;42208;6.376;-10.782;2022-12-18T07:22:02;25.50;99.90
56298;DHT22;42208;6.376;-10.782;2022-12-18T07:24:32;25.60;99.90
56298;DHT22;42208;6.376;-10.782;2022-12-18T07:27:00;25.60;99.90
56298;DHT22;42208;6.376;-10.782;2022-12-18T07:29:29;25.60;99.90
56298;DHT22;42208;6.376;-10.782;2022-12-18T07:31:57;25.60;99.90
56298;DHT22;42208;6.376;-10.782;2022-12-18T07:34:26;25.60;99.90
56298;DHT22;42208;6.376;-10.782;2022-12-18T07:36:54;25.60;99.90
56298;DHT22;42208;6.376;-10.782;2022-12-18T07:39:22;25.60;99.90
56298;DHT22;42208;6.376;-10.782;2022-12-18T07:41:51;25.70;99.90
56298;DHT22;42208;6.376;-10.782;2022-12-18T07:44:20;25.70;99.90
56298;DHT22;42208;6.376;-10.782;2022-12-18T07:46:48;25.70;99.90
56298;DHT22;42208;6.376;-10.782;2022-12-18T07:49:17;25.80;99.90
56298;DHT22;42208;6.376;-10.782;2022-12-18T07:51:45;25.80;99.90
56298;DHT22;42208;6.376;-10.782;2022-12-18T07:54:13;25.90;99.90
56298;DHT22;42208;6.376;-10.782;2022-12-18T07:56:41;25.90;99.90
56298;DHT22;42208;6.376;-10.782;2022-12-18T07:59:10;25.90;99.90
56298;DHT22;42208;6.376;-10.782;2022-12-18T08:01:38;26.00;99.90
56298;DHT22;42208;6.376;-10.782;2022-12-18T08:04:07;25.90;99.90
56298;DHT22;42208;6.376;-10.782;2022-12-18T08:06:36;26.00;99.90
56298;DHT22;42208;6.376;-10.782;2022-12-18T08:09:04;26.10;99.90
56298;DHT22;42208;6.376;-10.782;2022-12-18T08:11:32;26.10;99.90
56298;DHT22;42208;6.376;-10.782;2022-12-18T08:14:00;26.10;99.90
56298;DHT22;42208;6.376;-10.782;2022-12-18T08:16:29;26.30;99.90
56298;DHT22;42208;6.376;-10.782;2022-12-18T08:18:57;26.30;99.90
56298;DHT22;42208;6.376;-10.782;2022-12-18T08:21:28;26.50;99.90
56298;DHT22;42208;6.376;-10.782;2022-12-18T08:24:01;26.50;99.90
56298;DHT22;42208;6.376;-10.782;2022-12-18T08:26:30;26.60;99.90
56298;DHT22;42208;6.376;-10.782;2022-12-18T08:29:00;26.50;99.90
56298;DHT22;42208;6.376;-10.782;2022-12-18T08:31:29;26.60;99.90
56298;DHT22;42208;6.376;-10.782;2022-12-18T08:33:58;26.60;99.90
56298;DHT22;42208;6.376;-10.782;2022-12-18T08:36:27;26.60;99.90
56298;DHT22;42208;6.376;-10.782;2022-12-18T08:38:56;26.70;99.90
56298;DHT22;42208;6.376;-10.782;2022-12-18T08:41:25;26.70;99.90
56298;DHT22;42208;6.376;-10.782;2022-12-18T08:43:53;26.70;99.90
56298;DHT22;42208;6.376;-10.782;2022-12-18T08:46:24;26.70;99.90
56298;DHT22;42208;6.376;-10.782;2022-12-18T08:48:54;26.80;99.90
56298;DHT22;42208;6.376;-10.782;2022-12-18T08:51:23;26.90;99.90
56298;DHT22;42208;6.376;-10.782;2022-12-18T08:53:51;26.90;99.90
56298;DHT22;42208;6.376;-10.782;2022-12-18T08:56:19;27.00;99.90
56298;DHT22;42208;6.376;-10.782;2022-12-18T08:58:50;27.00;99.90
56298;DHT22;42208;6.376;-10.782;2022-12-18T09:01:19;27.00;99.90
56298;DHT22;42208;6.376;-10.782;2022-12-18T09:03:51;27.10;99.90
56298;DHT22;42208;6.376;-10.782;2022-12-18T09:06:21;27.10;99.90
56298;DHT22;42208;6.376;-10.782;2022-12-18T09:08:50;27.10;99.90
56298;DHT22;42208;6.376;-10.782;2022-12-18T09:11:24;27.20;99.90
56298;DHT22;42208;6.376;-10.782;2022-12-18T09:13:53;27.20;99.90
56298;DHT22;42208;6.376;-10.782;2022-12-18T09:16:23;27.30;99.90
56298;DHT22;42208;6.376;-10.782;2022-12-18T09:18:59;27.40;99.90
56298;DHT22;42208;6.376;-10.782;2022-12-18T09:21:30;27.40;99.90
56298;DHT22;42208;6.376;-10.782;2022-12-18T09:24:04;27.50;99.90
56298;DHT22;42208;6.376;-10.782;2022-12-18T09:26:35;27.60;99.90
56298;DHT22;42208;6.376;-10.782;2022-12-18T09:29:05;27.70;99.90
56298;DHT22;42208;6.376;-10.782;2022-12-18T09:31:33;27.80;99.90
56298;DHT22;42208;6.376;-10.782;2022-12-18T09:34:02;27.90;99.90
56298;DHT22;42208;6.376;-10.782;2022-12-18T09:36:31;27.90;99.90
56298;DHT22;42208;6.376;-10.782;2022-12-18T09:39:00;28.00;99.90
56298;DHT22;42208;6.376;-10.782;2022-12-18T09:41:44;28.10;99.90
56298;DHT22;42208;6.376;-10.782;2022-12-18T09:44:27;28.10;99.90
56298;DHT22;42208;6.376;-10.782;2022-12-18T09:49:40;28.20;99.90
56298;DHT22;42208;6.376;-10.782;2022-12-18T09:52:21;28.30;99.90
56298;DHT22;42208;6.376;-10.782;2022-12-18T09:57:26;28.30;99.90
56298;DHT22;42208;6.376;-10.782;2022-12-18T10:00:19;28.30;99.90
56298;DHT22;42208;6.376;-10.782;2022-12-18T10:02:48;28.30;99.90
56298;DHT22;42208;6.376;-10.782;2022-12-18T10:10:53;28.30;99.90
56298;DHT22;42208;6.376;-10.782;2022-12-18T10:13:28;28.20;99.90
56298;DHT22;42208;6.376;-10.782;2022-12-18T10:16:27;28.10;99.90
56298;DHT22;42208;6.376;-10.782;2022-12-18T10:24:25;28.30;99.90
56298;DHT22;42208;6.376;-10.782;2022-12-18T10:27:08;28.40;99.90
56298;DHT22;42208;6.376;-10.782;2022-12-18T10:29:37;28.60;99.90
56298;DHT22;42208;6.376;-10.782;2022-12-18T10:32:07;28.50;99.90
56298;DHT22;42208;6.376;-10.782;2022-12-18T10:34:37;28.70;99.90
56298;DHT22;42208;6.376;-10.782;2022-12-18T10:37:09;28.70;99.90
56298;DHT22;42208;6.376;-10.782;2022-12-18T10:39:40;28.80;99.90
56298;DHT22;42208;6.376;-10.782;2022-12-18T10:42:19;28.80;99.90
56298;DHT22;42208;6.376;-10.782;2022-12-18T10:45:08;28.90;99.90
56298;DHT22;42208;6.376;-10.782;2022-12-18T10:47:45;29.00;99.90
56298;DHT22;42208;6.376;-10.782;2022-12-18T10:50:30;29.10;99.90
56298;DHT22;42208;6.376;-10.782;2022-12-18T10:53:28;29.20;99.90
56298;DHT22;42208;6.376;-10.782;2022-12-18T10:56:04;29.10;99.90
56298;DHT22;42208;6.376;-10.782;2022-12-18T10:58:36;29.00;99.90
56298;DHT22;42208;6.376;-10.782;2022-12-18T11:01:17;29.00;99.90
56298;DHT22;42208;6.376;-10.782;2022-12-18T11:06:29;29.10;99.90
56298;DHT22;42208;6.376;-10.782;2022-12-18T11:09:20;29.30;99.90
56298;DHT22;42208;6.376;-10.782;2022-12-18T11:11:50;29.30;99.90
56298;DHT22;42208;6.376;-10.782;2022-12-18T11:14:25;29.40;99.90
56298;DHT22;42208;6.376;-10.782;2022-12-18T11:16:56;29.50;99.90
56298;DHT22;42208;6.376;-10.782;2022-12-18T11:20:38;29.60;99.90
56298;DHT22;42208;6.376;-10.782;2022-12-18T11:22:40;29.60;99.90
56298;DHT22;42208;6.376;-10.782;2022-12-18T11:28:26;29.60;99.90
56298;DHT22;42208;6.376;-10.782;2022-12-18T11:31:12;29.60;99.90
56298;DHT22;42208;6.376;-10.782;2022-12-18T11:37:01;29.70;99.90
56298;DHT22;42208;6.376;-10.782;2022-12-18T11:39:44;29.70;99.90
56298;DHT22;42208;6.376;-10.782;2022-12-18T11:42:23;29.70;99.90
56298;DHT22;42208;6.376;-10.782;2022-12-18T11:45:45;29.60;99.90
56298;DHT22;42208;6.376;-10.782;2022-12-18T11:48:18;29.50;99.90
56298;DHT22;42208;6.376;-10.782;2022-12-18T11:50:51;29.30;99.90
56298;DHT22;42208;6.376;-10.782;2022-12-18T11:53:20;29.30;99.90
56298;DHT22;42208;6.376;-10.782;2022-12-18T11:56:00;29.50;99.90
56298;DHT22;42208;6.376;-10.782;2022-12-18T12:01:35;29.60;99.90
56298;DHT22;42208;6.376;-10.782;2022-12-18T12:20:50;29.30;99.90
56298;DHT22;42208;6.376;-10.782;2022-12-18T12:38:14;29.80;99.90
56298;DHT22;42208;6.376;-10.782;2022-12-18T12:41:05;29.80;99.90
56298;DHT22;42208;6.376;-10.782;2022-12-18T12:43:45;29.80;99.90
56298;DHT22;42208;6.376;-10.782;2022-12-18T12:46:20;29.80;99.90
56298;DHT22;42208;6.376;-10.782;2022-12-18T12:48:53;29.70;99.90
56298;DHT22;42208;6.376;-10.782;2022-12-18T12:53:55;29.50;99.90
56298;DHT22;42208;6.376;-10.782;2022-12-18T12:56:32;29.60;99.90
56298;DHT22;42208;6.376;-10.782;2022-12-18T12:59:36;29.80;99.90
56298;DHT22;42208;6.376;-10.782;2022-12-18T13:02:17;29.90;99.90
56298;DHT22;42208;6.376;-10.782;2022-12-18T13:04:59;30.00;99.90
56298;DHT22;42208;6.376;-10.782;2022-12-18T13:07:41;30.10;99.90
56298;DHT22;42208;6.376;-10.782;2022-12-18T13:13:05;30.20;99.90
56298;DHT22;42208;6.376;-10.782;2022-12-18T13:16:07;30.10;99.90
56298;DHT22;42208;6.376;-10.782;2022-12-18T13:18:35;30.20;99.90
56298;DHT22;42208;6.376;-10.782;2022-12-18T13:21:29;30.40;99.90
56298;DHT22;42208;6.376;-10.782;2022-12-18T13:24:15;30.40;99.90
56298;DHT22;42208;6.376;-10.782;2022-12-18T13:26:51;30.20;99.90
56298;DHT22;42208;6.376;-10.782;2022-12-18T13:29:45;30.30;99.90
56298;DHT22;42208;6.376;-10.782;2022-12-18T13:32:25;30.40;99.90
56298;DHT22;42208;6.376;-10.782;2022-12-18T13:37:54;30.40;99.90
56298;DHT22;42208;6.376;-10.782;2022-12-18T13:48:25;30.60;99.90
56298;DHT22;42208;6.376;-10.782;2022-12-18T13:50:58;30.60;99.90
56298;DHT22;42208;6.376;-10.782;2022-12-18T13:53:31;30.60;99.90
56298;DHT22;42208;6.376;-10.782;2022-12-18T13:56:02;30.60;99.90
56298;DHT22;42208;6.376;-10.782;2022-12-18T13:58:31;30.70;99.90
56298;DHT22;42208;6.376;-10.782;2022-12-18T14:01:00;30.70;99.90
56298;DHT22;42208;6.376;-10.782;2022-12-18T14:03:29;30.70;99.90
56298;DHT22;42208;6.376;-10.782;2022-12-18T14:06:08;30.80;99.90
56298;DHT22;42208;6.376;-10.782;2022-12-18T14:08:40;30.90;99.90
56298;DHT22;42208;6.376;-10.782;2022-12-18T14:11:19;30.90;99.90
56298;DHT22;42208;6.376;-10.782;2022-12-18T14:13:52;30.90;99.90
56298;DHT22;42208;6.376;-10.782;2022-12-18T14:16:20;30.80;99.90
56298;DHT22;42208;6.376;-10.782;2022-12-18T14:18:54;31.00;99.90
56298;DHT22;42208;6.376;-10.782;2022-12-18T14:21:48;31.10;99.90
56298;DHT22;42208;6.376;-10.782;2022-12-18T14:24:20;31.00;99.90
56298;DHT22;42208;6.376;-10.782;2022-12-18T14:26:49;30.90;99.90
56298;DHT22;42208;6.376;-10.782;2022-12-18T14:29:29;30.90;99.90
56298;DHT22;42208;6.376;-10.782;2022-12-18T14:32:24;30.80;99.90
56298;DHT22;42208;6.376;-10.782;2022-12-18T14:34:54;31.10;99.90
56298;DHT22;42208;6.376;-10.782;2022-12-18T14:37:24;31.20;99.90
56298;DHT22;42208;6.376;-10.782;2022-12-18T14:39:58;31.30;99.90
56298;DHT22;42208;6.376;-10.782;2022-12-18T14:42:33;31.20;99.90
56298;DHT22;42208;6.376;-10.782;2022-12-18T14:54:02;31.00;99.90
56298;DHT22;42208;6.376;-10.782;2022-12-18T14:56:36;31.00;99.90
56298;DHT22;42208;6.376;-10.782;2022-12-18T14:59:22;31.30;99.90
56298;DHT22;42208;6.376;-10.782;2022-12-18T15:02:01;31.50;99.90
56298;DHT22;42208;6.376;-10.782;2022-12-18T15:04:34;31.70;99.90
56298;DHT22;42208;6.376;-10.782;2022-12-18T15:07:12;31.80;99.90
56298;DHT22;42208;6.376;-10.782;2022-12-18T15:10:25;31.90;99.90
56298;DHT22;42208;6.376;-10.782;2022-12-18T15:12:38;31.90;99.90
56298;DHT22;42208;6.376;-10.782;2022-12-18T15:20:55;32.10;99.90
56298;DHT22;42208;6.376;-10.782;2022-12-18T15:26:03;32.20;99.90
56298;DHT22;42208;6.376;-10.782;2022-12-18T15:28:53;32.40;99.90
56298;DHT22;42208;6.376;-10.782;2022-12-18T15:31:23;32.20;99.90
56298;DHT22;42208;6.376;-10.782;2022-12-18T15:36:22;32.10;99.90
56298;DHT22;42208;6.376;-10.782;2022-12-18T15:38:57;32.20;99.90
56298;DHT22;42208;6.376;-10.782;2022-12-18T15:41:34;32.30;99.90
56298;DHT22;42208;6.376;-10.782;2022-12-18T15:44:19;32.20;99.90
56298;DHT22;42208;6.376;-10.782;2022-12-18T15:46:49;32.60;99.90
56298;DHT22;42208;6.376;-10.782;2022-12-18T15:49:17;32.30;99.90
56298;DHT22;42208;6.376;-10.782;2022-12-18T15:51:58;32.40;99.90
56298;DHT22;42208;6.376;-10.782;2022-12-18T15:54:27;32.20;99.90
56298;DHT22;42208;6.376;-10.782;2022-12-18T15:56:55;32.50;99.90
56298;DHT22;42208;6.376;-10.782;2022-12-18T15:59:25;32.50;99.90
56298;DHT22;42208;6.376;-10.782;2022-12-18T16:01:53;32.40;99.90
56298;DHT22;42208;6.376;-10.782;2022-12-18T16:04:23;32.40;99.90
56298;DHT22;42208;6.376;-10.782;2022-12-18T16:06:51;32.40;99.90
56298;DHT22;42208;6.376;-10.782;2022-12-18T16:09:40;32.40;99.90
56298;DHT22;42208;6.376;-10.782;2022-12-18T16:12:21;32.40;99.90
56298;DHT22;42208;6.376;-10.782;2022-12-18T16:14:50;32.40;99.90
56298;DHT22;42208;6.376;-10.782;2022-12-18T16:17:18;32.30;99.90
56298;DHT22;42208;6.376;-10.782;2022-12-18T16:19:47;32.40;99.90
56298;DHT22;42208;6.376;-10.782;2022-12-18T16:22:21;32.60;99.90
56298;DHT22;42208;6.376;-10.782;2022-12-18T16:24:52;32.50;99.90
56298;DHT22;42208;6.376;-10.782;2022-12-18T16:27:21;32.40;99.90
56298;DHT22;42208;6.376;-10.782;2022-12-18T16:29:50;32.40;99.90
56298;DHT22;42208;6.376;-10.782;2022-12-18T16:32:20;32.10;99.90
56298;DHT22;42208;6.376;-10.782;2022-12-18T16:34:50;32.20;99.90
56298;DHT22;42208;6.376;-10.782;2022-12-18T16:37:18;32.30;99.90
56298;DHT22;42208;6.376;-10.782;2022-12-18T16:39:46;32.10;99.90
56298;DHT22;42208;6.376;-10.782;2022-12-18T16:42:17;32.10;99.90
56298;DHT22;42208;6.376;-10.782;2022-12-18T16:44:47;32.10;99.90
56298;DHT22;42208;6.376;-10.782;2022-12-18T16:47:16;31.90;99.90
56298;DHT22;42208;6.376;-10.782;2022-12-18T16:49:44;31.90;99.90
56298;DHT22;42208;6.376;-10.782;2022-12-18T16:52:13;31.90;99.90
56298;DHT22;42208;6.376;-10.782;2022-12-18T16:54:41;31.70;99.90
56298;DHT22;42208;6.376;-10.782;2022-12-18T16:57:13;31.80;99.90
56298;DHT22;42208;6.376;-10.782;2022-12-18T16:59:42;31.90;99.90
56298;DHT22;42208;6.376;-10.782;2022-12-18T17:02:19;31.90;99.90
56298;DHT22;42208;6.376;-10.782;2022-12-18T17:04:53;31.90;99.90
56298;DHT22;42208;6.376;-10.782;2022-12-18T17:07:23;31.80;99.90
56298;DHT22;42208;6.376;-10.782;2022-12-18T17:09:52;31.70;99.90
56298;DHT22;42208;6.376;-10.782;2022-12-18T17:12:21;31.30;99.90
56298;DHT22;42208;6.376;-10.782;2022-12-18T17:14:49;31.20;99.90
56298;DHT22;42208;6.376;-10.782;2022-12-18T17:17:18;31.20;99.90
56298;DHT22;42208;6.376;-10.782;2022-12-18T17:19:49;31.10;99.90
56298;DHT22;42208;6.376;-10.782;2022-12-18T17:22:19;31.00;99.90
56298;DHT22;42208;6.376;-10.782;2022-12-18T17:24:47;31.00;99.90
56298;DHT22;42208;6.376;-10.782;2022-12-18T17:27:15;30.90;99.90
56298;DHT22;42208;6.376;-10.782;2022-12-18T17:29:44;30.70;99.90
56298;DHT22;42208;6.376;-10.782;2022-12-18T17:32:16;30.40;99.90
56298;DHT22;42208;6.376;-10.782;2022-12-18T17:34:44;30.20;99.90
56298;DHT22;42208;6.376;-10.782;2022-12-18T17:37:13;30.20;99.90
56298;DHT22;42208;6.376;-10.782;2022-12-18T17:39:42;30.20;99.90
56298;DHT22;42208;6.376;-10.782;2022-12-18T17:42:10;30.00;99.90
56298;DHT22;42208;6.376;-10.782;2022-12-18T17:44:42;29.90;99.90
56298;DHT22;42208;6.376;-10.782;2022-12-18T17:47:12;29.80;99.90
56298;DHT22;42208;6.376;-10.782;2022-12-18T17:49:41;29.80;99.90
56298;DHT22;42208;6.376;-10.782;2022-12-18T17:52:09;29.70;99.90